Hauptseite
METAR-TAF:

METAR-TAF

Flughäfen :

Flughafen Rouen

Rouen, Frankreich

Breite: 49-23N, Länge: 001-11E, Höhe: 157 m

Beobachtung

Neuester Wetterbericht von vor 43 Minuten, um 15:30 UTC
Wind 6 kt aus Ost/Südost
Temperatur 12°C
Luftfeuchtigkeit 82%
Luftdruck 1023 hPa
Sichtweite 10 km oder mehr
keine Wolken unter 1500 m und keine Kumulonimbus oder Gewitterwolken

METAR: LFOP 141530Z AUTO 12006KT CAVOK 12/09 Q1023 NOSIG

Zeit: 17:13 (16:13 UTC)

Prognose

Neuester Wetterbericht von vor 5 Stunden und 13 Minuten, um 11:00 UTC
Gültige Prognose vom 14 um 12 UTC bis 15 um 12 UTC
Wind 6 kt aus Südost
Sichtweite: 8000 m
Übergehend zu
vom 14 um 20 UTC bis 14 um 24 UTC
Sichtweite: 1200 m
Nebelschwaden
Zeitweise
vom 15 um 00 UTC bis 15 um 11 UTC
Sichtweite: 0300 m
Nebel

TAF: LFOP 141100Z 1412/1512 13006KT 8000 NSC BECMG 1420/1424 1200 BCFG TEMPO 1500/1511 0300 FG VV///

Wetterbeobachtungen und Prognosen von mehr als 4000 Flughäfen (METAR und TAF Bericht).

Die verfügbaren Stationen werden durch gelbe und rote Markierungen auf der Karte dargestellt.

Führen Sie die Maus auf sie, um den Namen der Station zu sehen.

Darauf klicken, um die Beobachtung von Wetterbeobachtungen und Prognosen zu sehen.

Um die Karte zu ändern : klicken Sie auf den grünen Tasten mit einem schwarzen Kreuz Zum Vergrößern, auf den grünen Button mit einem Gedankenstrich zu verkleinern, oder auf die grünen Pfeile für benachbarte Karten.


METAR-TAF: